sensor_id;sensor_type;location;lat;lon;timestamp;P1;durP1;ratioP1;P2;durP2;ratioP2
65031;SDS011;51593;55.714;37.436;2022-07-05T00:01:00;34.92;;;9.60;;
65031;SDS011;51593;55.714;37.436;2022-07-05T00:03:26;18.13;;;9.68;;
65031;SDS011;51593;55.714;37.436;2022-07-05T00:05:52;16.80;;;9.20;;
65031;SDS011;51593;55.714;37.436;2022-07-05T00:08:17;18.23;;;9.45;;
65031;SDS011;51593;55.714;37.436;2022-07-05T00:10:43;22.33;;;10.00;;
65031;SDS011;51593;55.714;37.436;2022-07-05T00:13:09;18.40;;;10.05;;
65031;SDS011;51593;55.714;37.436;2022-07-05T00:15:36;24.40;;;9.90;;
65031;SDS011;51593;55.714;37.436;2022-07-05T00:18:01;21.88;;;9.38;;
65031;SDS011;51593;55.714;37.436;2022-07-05T00:20:27;29.88;;;10.25;;
65031;SDS011;51593;55.714;37.436;2022-07-05T00:22:53;25.77;;;10.02;;
65031;SDS011;51593;55.714;37.436;2022-07-05T00:25:19;22.02;;;10.32;;
65031;SDS011;51593;55.714;37.436;2022-07-05T00:27:45;23.23;;;9.73;;
65031;SDS011;51593;55.714;37.436;2022-07-05T00:30:12;30.40;;;9.88;;
65031;SDS011;51593;55.714;37.436;2022-07-05T00:32:38;26.70;;;10.05;;
65031;SDS011;51593;55.714;37.436;2022-07-05T00:35:04;30.02;;;9.50;;
65031;SDS011;51593;55.714;37.436;2022-07-05T00:37:31;37.60;;;9.90;;
65031;SDS011;51593;55.714;37.436;2022-07-05T00:39:56;30.40;;;9.77;;
65031;SDS011;51593;55.714;37.436;2022-07-05T00:42:22;19.52;;;9.05;;
65031;SDS011;51593;55.714;37.436;2022-07-05T00:44:48;24.92;;;8.82;;
65031;SDS011;51593;55.714;37.436;2022-07-05T00:47:14;20.80;;;9.45;;
65031;SDS011;51593;55.714;37.436;2022-07-05T00:49:40;19.00;;;9.43;;
65031;SDS011;51593;55.714;37.436;2022-07-05T00:52:07;23.40;;;9.82;;
65031;SDS011;51593;55.714;37.436;2022-07-05T00:54:34;25.33;;;9.60;;
65031;SDS011;51593;55.714;37.436;2022-07-05T00:57:00;18.80;;;8.48;;
65031;SDS011;51593;55.714;37.436;2022-07-05T00:59:27;26.00;;;9.43;;
65031;SDS011;51593;55.714;37.436;2022-07-05T01:01:53;23.80;;;9.25;;
65031;SDS011;51593;55.714;37.436;2022-07-05T01:04:19;16.35;;;8.85;;
65031;SDS011;51593;55.714;37.436;2022-07-05T01:06:46;23.75;;;9.48;;
65031;SDS011;51593;55.714;37.436;2022-07-05T01:09:14;18.70;;;9.27;;
65031;SDS011;51593;55.714;37.436;2022-07-05T01:11:44;16.23;;;9.13;;
65031;SDS011;51593;55.714;37.436;2022-07-05T01:14:15;17.90;;;9.10;;
65031;SDS011;51593;55.714;37.436;2022-07-05T01:16:42;20.55;;;9.50;;
65031;SDS011;51593;55.714;37.436;2022-07-05T01:19:09;19.98;;;9.38;;
65031;SDS011;51593;55.714;37.436;2022-07-05T01:21:38;15.25;;;9.25;;
65031;SDS011;51593;55.714;37.436;2022-07-05T01:24:06;15.27;;;9.25;;
65031;SDS011;51593;55.714;37.436;2022-07-05T01:26:33;14.80;;;8.82;;
65031;SDS011;51593;55.714;37.436;2022-07-05T01:28:59;14.25;;;9.38;;
65031;SDS011;51593;55.714;37.436;2022-07-05T01:31:25;19.08;;;9.18;;
65031;SDS011;51593;55.714;37.436;2022-07-05T01:33:50;18.15;;;8.43;;
65031;SDS011;51593;55.714;37.436;2022-07-05T01:36:16;13.98;;;7.97;;
65031;SDS011;51593;55.714;37.436;2022-07-05T01:38:42;14.32;;;8.55;;
65031;SDS011;51593;55.714;37.436;2022-07-05T01:41:08;11.73;;;8.50;;
65031;SDS011;51593;55.714;37.436;2022-07-05T01:43:34;19.23;;;8.98;;
65031;SDS011;51593;55.714;37.436;2022-07-05T01:46:01;15.85;;;9.35;;
65031;SDS011;51593;55.714;37.436;2022-07-05T01:48:28;21.58;;;9.50;;
65031;SDS011;51593;55.714;37.436;2022-07-05T01:50:57;13.27;;;8.77;;
65031;SDS011;51593;55.714;37.436;2022-07-05T01:53:28;16.27;;;8.65;;
65031;SDS011;51593;55.714;37.436;2022-07-05T01:55:58;13.82;;;8.35;;
65031;SDS011;51593;55.714;37.436;2022-07-05T01:58:25;16.75;;;8.88;;
65031;SDS011;51593;55.714;37.436;2022-07-05T02:00:52;18.75;;;8.88;;
65031;SDS011;51593;55.714;37.436;2022-07-05T02:03:18;20.02;;;9.32;;
65031;SDS011;51593;55.714;37.436;2022-07-05T02:05:45;24.60;;;9.05;;
65031;SDS011;51593;55.714;37.436;2022-07-05T02:08:15;19.13;;;9.38;;
65031;SDS011;51593;55.714;37.436;2022-07-05T02:10:43;13.80;;;8.20;;
65031;SDS011;51593;55.714;37.436;2022-07-05T02:13:09;14.70;;;8.90;;
65031;SDS011;51593;55.714;37.436;2022-07-05T02:15:36;14.90;;;9.10;;
65031;SDS011;51593;55.714;37.436;2022-07-05T02:18:04;14.43;;;8.43;;
65031;SDS011;51593;55.714;37.436;2022-07-05T02:20:31;13.70;;;7.80;;
65031;SDS011;51593;55.714;37.436;2022-07-05T02:22:59;16.10;;;7.93;;
65031;SDS011;51593;55.714;37.436;2022-07-05T02:25:26;12.20;;;7.85;;
65031;SDS011;51593;55.714;37.436;2022-07-05T02:27:54;10.10;;;7.82;;
65031;SDS011;51593;55.714;37.436;2022-07-05T02:30:21;11.30;;;7.68;;
65031;SDS011;51593;55.714;37.436;2022-07-05T02:32:47;13.38;;;7.60;;
65031;SDS011;51593;55.714;37.436;2022-07-05T02:35:13;13.88;;;7.65;;
65031;SDS011;51593;55.714;37.436;2022-07-05T02:37:40;12.90;;;7.70;;
65031;SDS011;51593;55.714;37.436;2022-07-05T02:40:07;13.93;;;7.65;;
65031;SDS011;51593;55.714;37.436;2022-07-05T02:42:38;15.85;;;8.20;;
65031;SDS011;51593;55.714;37.436;2022-07-05T02:45:06;18.73;;;8.43;;
65031;SDS011;51593;55.714;37.436;2022-07-05T02:47:33;19.38;;;9.20;;
65031;SDS011;51593;55.714;37.436;2022-07-05T02:50:05;14.52;;;8.77;;
65031;SDS011;51593;55.714;37.436;2022-07-05T02:52:34;16.13;;;8.90;;
65031;SDS011;51593;55.714;37.436;2022-07-05T02:55:02;14.82;;;8.50;;
65031;SDS011;51593;55.714;37.436;2022-07-05T02:57:29;15.63;;;8.82;;
65031;SDS011;51593;55.714;37.436;2022-07-05T02:59:56;17.80;;;9.23;;
65031;SDS011;51593;55.714;37.436;2022-07-05T03:02:29;19.88;;;8.70;;
65031;SDS011;51593;55.714;37.436;2022-07-05T03:04:57;29.73;;;9.38;;
65031;SDS011;51593;55.714;37.436;2022-07-05T03:07:24;39.33;;;10.65;;
65031;SDS011;51593;55.714;37.436;2022-07-05T03:09:50;30.27;;;10.20;;
65031;SDS011;51593;55.714;37.436;2022-07-05T03:12:16;22.95;;;9.73;;
65031;SDS011;51593;55.714;37.436;2022-07-05T03:14:44;24.52;;;9.23;;
65031;SDS011;51593;55.714;37.436;2022-07-05T03:17:10;24.77;;;8.30;;
65031;SDS011;51593;55.714;37.436;2022-07-05T03:19:36;18.73;;;8.20;;
65031;SDS011;51593;55.714;37.436;2022-07-05T03:22:03;11.02;;;7.82;;
65031;SDS011;51593;55.714;37.436;2022-07-05T03:24:31;14.25;;;7.13;;
65031;SDS011;51593;55.714;37.436;2022-07-05T03:26:57;9.95;;;7.25;;
65031;SDS011;51593;55.714;37.436;2022-07-05T03:29:23;10.43;;;7.53;;
65031;SDS011;51593;55.714;37.436;2022-07-05T03:31:50;10.57;;;7.13;;
65031;SDS011;51593;55.714;37.436;2022-07-05T03:34:18;12.32;;;7.20;;
65031;SDS011;51593;55.714;37.436;2022-07-05T03:36:44;14.65;;;6.95;;
65031;SDS011;51593;55.714;37.436;2022-07-05T03:39:14;11.15;;;7.00;;
65031;SDS011;51593;55.714;37.436;2022-07-05T03:41:41;9.15;;;7.03;;
65031;SDS011;51593;55.714;37.436;2022-07-05T03:44:09;11.85;;;7.30;;
65031;SDS011;51593;55.714;37.436;2022-07-05T03:46:35;12.82;;;7.63;;
65031;SDS011;51593;55.714;37.436;2022-07-05T03:49:01;15.27;;;7.40;;
65031;SDS011;51593;55.714;37.436;2022-07-05T03:51:27;15.57;;;7.13;;
65031;SDS011;51593;55.714;37.436;2022-07-05T03:53:55;16.38;;;7.30;;
65031;SDS011;51593;55.714;37.436;2022-07-05T03:56:24;10.45;;;7.10;;
65031;SDS011;51593;55.714;37.436;2022-07-05T03:58:54;13.57;;;7.40;;
65031;SDS011;51593;55.714;37.436;2022-07-05T04:01:20;10.45;;;7.10;;
65031;SDS011;51593;55.714;37.436;2022-07-05T04:03:46;11.00;;;7.32;;
65031;SDS011;51593;55.714;37.436;2022-07-05T04:06:14;12.00;;;7.25;;
65031;SDS011;51593;55.714;37.436;2022-07-05T04:08:39;11.30;;;6.90;;
65031;SDS011;51593;55.714;37.436;2022-07-05T04:11:05;12.57;;;7.18;;
65031;SDS011;51593;55.714;37.436;2022-07-05T04:13:34;10.93;;;6.95;;
65031;SDS011;51593;55.714;37.436;2022-07-05T04:16:00;12.63;;;7.07;;
65031;SDS011;51593;55.714;37.436;2022-07-05T04:18:26;9.98;;;6.72;;
65031;SDS011;51593;55.714;37.436;2022-07-05T04:20:55;14.15;;;6.82;;
65031;SDS011;51593;55.714;37.436;2022-07-05T04:23:21;13.02;;;6.70;;
65031;SDS011;51593;55.714;37.436;2022-07-05T04:25:47;9.45;;;6.70;;
65031;SDS011;51593;55.714;37.436;2022-07-05T04:28:18;8.75;;;6.93;;
65031;SDS011;51593;55.714;37.436;2022-07-05T04:30:46;11.73;;;6.82;;
65031;SDS011;51593;55.714;37.436;2022-07-05T04:33:14;10.20;;;6.90;;
65031;SDS011;51593;55.714;37.436;2022-07-05T04:35:43;12.10;;;6.95;;
65031;SDS011;51593;55.714;37.436;2022-07-05T04:38:09;13.73;;;7.22;;
65031;SDS011;51593;55.714;37.436;2022-07-05T04:40:37;15.80;;;7.15;;
65031;SDS011;51593;55.714;37.436;2022-07-05T04:43:05;14.95;;;6.85;;
65031;SDS011;51593;55.714;37.436;2022-07-05T04:45:31;16.40;;;6.80;;
65031;SDS011;51593;55.714;37.436;2022-07-05T04:47:58;13.05;;;7.15;;
65031;SDS011;51593;55.714;37.436;2022-07-05T04:50:26;14.60;;;7.18;;
65031;SDS011;51593;55.714;37.436;2022-07-05T04:52:53;12.40;;;6.88;;
65031;SDS011;51593;55.714;37.436;2022-07-05T04:55:19;13.88;;;7.20;;
65031;SDS011;51593;55.714;37.436;2022-07-05T04:57:45;13.88;;;7.38;;
65031;SDS011;51593;55.714;37.436;2022-07-05T05:00:12;19.60;;;7.55;;
65031;SDS011;51593;55.714;37.436;2022-07-05T05:02:39;12.30;;;6.90;;
65031;SDS011;51593;55.714;37.436;2022-07-05T05:05:06;13.45;;;7.43;;
65031;SDS011;51593;55.714;37.436;2022-07-05T05:07:32;13.75;;;7.60;;
65031;SDS011;51593;55.714;37.436;2022-07-05T05:09:59;19.10;;;7.20;;
65031;SDS011;51593;55.714;37.436;2022-07-05T05:12:25;19.70;;;7.50;;
65031;SDS011;51593;55.714;37.436;2022-07-05T05:14:51;14.43;;;7.20;;
65031;SDS011;51593;55.714;37.436;2022-07-05T05:17:17;11.63;;;7.28;;
65031;SDS011;51593;55.714;37.436;2022-07-05T05:19:43;14.18;;;7.32;;
65031;SDS011;51593;55.714;37.436;2022-07-05T05:22:10;16.30;;;7.70;;
65031;SDS011;51593;55.714;37.436;2022-07-05T05:24:36;14.80;;;7.38;;
65031;SDS011;51593;55.714;37.436;2022-07-05T05:27:02;13.85;;;7.47;;
65031;SDS011;51593;55.714;37.436;2022-07-05T05:29:28;14.82;;;7.40;;
65031;SDS011;51593;55.714;37.436;2022-07-05T05:31:55;10.95;;;7.57;;
65031;SDS011;51593;55.714;37.436;2022-07-05T05:34:21;15.48;;;7.38;;
65031;SDS011;51593;55.714;37.436;2022-07-05T05:36:47;17.60;;;7.75;;
65031;SDS011;51593;55.714;37.436;2022-07-05T05:39:13;19.88;;;7.78;;
65031;SDS011;51593;55.714;37.436;2022-07-05T05:41:38;19.23;;;7.60;;
65031;SDS011;51593;55.714;37.436;2022-07-05T05:44:04;17.35;;;7.70;;
65031;SDS011;51593;55.714;37.436;2022-07-05T05:46:30;18.17;;;7.60;;
65031;SDS011;51593;55.714;37.436;2022-07-05T05:48:56;19.75;;;8.05;;
65031;SDS011;51593;55.714;37.436;2022-07-05T05:51:23;17.00;;;8.15;;
65031;SDS011;51593;55.714;37.436;2022-07-05T05:53:49;17.38;;;7.90;;
65031;SDS011;51593;55.714;37.436;2022-07-05T05:56:15;19.25;;;8.10;;
65031;SDS011;51593;55.714;37.436;2022-07-05T05:58:41;17.13;;;8.10;;
65031;SDS011;51593;55.714;37.436;2022-07-05T06:01:07;20.50;;;8.07;;
65031;SDS011;51593;55.714;37.436;2022-07-05T06:03:32;26.13;;;8.18;;
65031;SDS011;51593;55.714;37.436;2022-07-05T06:05:58;19.17;;;7.97;;
65031;SDS011;51593;55.714;37.436;2022-07-05T06:08:24;17.13;;;7.82;;
65031;SDS011;51593;55.714;37.436;2022-07-05T06:10:50;19.27;;;7.82;;
65031;SDS011;51593;55.714;37.436;2022-07-05T06:13:15;14.18;;;7.90;;
65031;SDS011;51593;55.714;37.436;2022-07-05T06:15:41;18.65;;;8.20;;
65031;SDS011;51593;55.714;37.436;2022-07-05T06:18:08;14.32;;;7.80;;
65031;SDS011;51593;55.714;37.436;2022-07-05T06:20:35;16.77;;;8.27;;
65031;SDS011;51593;55.714;37.436;2022-07-05T06:23:02;16.27;;;7.80;;
65031;SDS011;51593;55.714;37.436;2022-07-05T06:25:29;15.20;;;7.70;;
65031;SDS011;51593;55.714;37.436;2022-07-05T06:27:57;19.95;;;7.85;;
65031;SDS011;51593;55.714;37.436;2022-07-05T06:30:25;13.88;;;7.07;;
65031;SDS011;51593;55.714;37.436;2022-07-05T06:32:52;14.13;;;6.93;;
65031;SDS011;51593;55.714;37.436;2022-07-05T06:35:19;12.60;;;6.78;;
65031;SDS011;51593;55.714;37.436;2022-07-05T06:37:52;12.40;;;7.30;;
65031;SDS011;51593;55.714;37.436;2022-07-05T06:40:25;12.63;;;7.10;;
65031;SDS011;51593;55.714;37.436;2022-07-05T06:42:57;14.20;;;7.80;;
65031;SDS011;51593;55.714;37.436;2022-07-05T06:45:30;14.55;;;7.60;;
65031;SDS011;51593;55.714;37.436;2022-07-05T06:47:57;15.30;;;8.52;;
65031;SDS011;51593;55.714;37.436;2022-07-05T06:50:24;12.32;;;7.57;;
65031;SDS011;51593;55.714;37.436;2022-07-05T06:52:51;13.30;;;7.78;;
65031;SDS011;51593;55.714;37.436;2022-07-05T06:55:17;14.70;;;7.60;;
65031;SDS011;51593;55.714;37.436;2022-07-05T06:57:43;14.68;;;6.82;;
65031;SDS011;51593;55.714;37.436;2022-07-05T07:00:09;10.43;;;7.15;;
65031;SDS011;51593;55.714;37.436;2022-07-05T07:02:36;10.90;;;7.38;;
65031;SDS011;51593;55.714;37.436;2022-07-05T07:05:03;8.95;;;6.82;;
65031;SDS011;51593;55.714;37.436;2022-07-05T07:07:32;8.68;;;7.10;;
65031;SDS011;51593;55.714;37.436;2022-07-05T07:10:17;10.18;;;7.20;;
65031;SDS011;51593;55.714;37.436;2022-07-05T07:12:43;12.85;;;7.40;;
65031;SDS011;51593;55.714;37.436;2022-07-05T07:15:10;8.63;;;6.57;;
65031;SDS011;51593;55.714;37.436;2022-07-05T07:17:36;12.02;;;6.57;;
65031;SDS011;51593;55.714;37.436;2022-07-05T07:20:02;10.25;;;6.90;;
65031;SDS011;51593;55.714;37.436;2022-07-05T07:22:30;10.93;;;7.78;;
65031;SDS011;51593;55.714;37.436;2022-07-05T07:24:56;11.40;;;7.28;;
65031;SDS011;51593;55.714;37.436;2022-07-05T07:27:21;12.55;;;7.78;;
65031;SDS011;51593;55.714;37.436;2022-07-05T07:29:48;13.65;;;7.80;;
65031;SDS011;51593;55.714;37.436;2022-07-05T07:32:14;14.82;;;7.93;;
65031;SDS011;51593;55.714;37.436;2022-07-05T07:34:42;14.13;;;8.27;;
65031;SDS011;51593;55.714;37.436;2022-07-05T07:37:07;12.73;;;6.97;;
65031;SDS011;51593;55.714;37.436;2022-07-05T07:39:38;11.48;;;7.38;;
65031;SDS011;51593;55.714;37.436;2022-07-05T07:42:05;13.95;;;8.25;;
65031;SDS011;51593;55.714;37.436;2022-07-05T07:44:31;12.20;;;7.85;;
65031;SDS011;51593;55.714;37.436;2022-07-05T07:46:57;9.52;;;7.38;;
65031;SDS011;51593;55.714;37.436;2022-07-05T07:49:23;10.73;;;7.82;;
65031;SDS011;51593;55.714;37.436;2022-07-05T07:51:48;10.45;;;7.70;;
65031;SDS011;51593;55.714;37.436;2022-07-05T07:54:14;13.32;;;7.50;;
65031;SDS011;51593;55.714;37.436;2022-07-05T07:56:40;10.45;;;8.02;;
65031;SDS011;51593;55.714;37.436;2022-07-05T07:59:06;12.07;;;8.00;;
65031;SDS011;51593;55.714;37.436;2022-07-05T08:01:32;12.00;;;7.65;;
65031;SDS011;51593;55.714;37.436;2022-07-05T08:03:58;12.32;;;7.68;;
65031;SDS011;51593;55.714;37.436;2022-07-05T08:06:24;13.18;;;7.68;;
65031;SDS011;51593;55.714;37.436;2022-07-05T08:08:49;11.63;;;7.40;;
65031;SDS011;51593;55.714;37.436;2022-07-05T08:11:16;11.10;;;7.90;;
65031;SDS011;51593;55.714;37.436;2022-07-05T08:13:42;11.85;;;7.97;;
65031;SDS011;51593;55.714;37.436;2022-07-05T08:16:09;10.25;;;8.02;;
65031;SDS011;51593;55.714;37.436;2022-07-05T08:18:35;11.75;;;7.93;;
65031;SDS011;51593;55.714;37.436;2022-07-05T08:21:20;11.40;;;7.47;;
65031;SDS011;51593;55.714;37.436;2022-07-05T08:24:04;13.10;;;7.80;;
65031;SDS011;51593;55.714;37.436;2022-07-05T08:26:31;11.82;;;7.50;;
65031;SDS011;51593;55.714;37.436;2022-07-05T08:28:58;10.65;;;7.47;;
65031;SDS011;51593;55.714;37.436;2022-07-05T08:31:27;8.95;;;7.43;;
65031;SDS011;51593;55.714;37.436;2022-07-05T08:33:53;8.75;;;7.75;;
65031;SDS011;51593;55.714;37.436;2022-07-05T08:36:19;10.13;;;7.63;;
65031;SDS011;51593;55.714;37.436;2022-07-05T08:38:46;11.18;;;7.40;;
65031;SDS011;51593;55.714;37.436;2022-07-05T08:41:14;10.63;;;7.50;;
65031;SDS011;51593;55.714;37.436;2022-07-05T08:43:43;9.15;;;8.05;;
65031;SDS011;51593;55.714;37.436;2022-07-05T08:46:10;14.88;;;7.72;;
65031;SDS011;51593;55.714;37.436;2022-07-05T08:48:37;10.60;;;7.80;;
65031;SDS011;51593;55.714;37.436;2022-07-05T08:51:13;8.80;;;7.50;;
65031;SDS011;51593;55.714;37.436;2022-07-05T08:53:42;10.70;;;8.15;;
65031;SDS011;51593;55.714;37.436;2022-07-05T08:56:09;9.43;;;7.90;;
65031;SDS011;51593;55.714;37.436;2022-07-05T08:58:36;9.75;;;8.20;;
65031;SDS011;51593;55.714;37.436;2022-07-05T09:01:03;10.27;;;7.88;;
65031;SDS011;51593;55.714;37.436;2022-07-05T09:03:31;9.80;;;8.32;;
65031;SDS011;51593;55.714;37.436;2022-07-05T09:06:00;8.63;;;7.65;;
65031;SDS011;51593;55.714;37.436;2022-07-05T09:08:28;9.57;;;8.02;;
65031;SDS011;51593;55.714;37.436;2022-07-05T09:10:57;11.05;;;8.15;;
65031;SDS011;51593;55.714;37.436;2022-07-05T09:13:25;8.85;;;7.95;;
65031;SDS011;51593;55.714;37.436;2022-07-05T09:15:50;12.25;;;8.50;;
65031;SDS011;51593;55.714;37.436;2022-07-05T09:21:15;11.75;;;9.07;;
65031;SDS011;51593;55.714;37.436;2022-07-05T09:23:42;14.85;;;8.48;;
65031;SDS011;51593;55.714;37.436;2022-07-05T09:26:09;12.20;;;8.68;;
65031;SDS011;51593;55.714;37.436;2022-07-05T09:28:35;12.15;;;8.68;;
65031;SDS011;51593;55.714;37.436;2022-07-05T09:31:00;12.48;;;8.65;;
65031;SDS011;51593;55.714;37.436;2022-07-05T09:33:26;11.40;;;9.02;;
65031;SDS011;51593;55.714;37.436;2022-07-05T09:35:53;13.48;;;8.95;;
65031;SDS011;51593;55.714;37.436;2022-07-05T09:38:22;12.85;;;9.18;;
65031;SDS011;51593;55.714;37.436;2022-07-05T09:43:19;16.08;;;9.60;;
65031;SDS011;51593;55.714;37.436;2022-07-05T09:46:04;14.18;;;9.63;;
65031;SDS011;51593;55.714;37.436;2022-07-05T09:48:32;12.43;;;8.98;;
65031;SDS011;51593;55.714;37.436;2022-07-05T09:51:08;13.40;;;9.10;;
65031;SDS011;51593;55.714;37.436;2022-07-05T09:56:10;12.52;;;9.27;;
65031;SDS011;51593;55.714;37.436;2022-07-05T09:58:35;10.90;;;8.95;;
65031;SDS011;51593;55.714;37.436;2022-07-05T10:01:01;12.38;;;8.90;;
65031;SDS011;51593;55.714;37.436;2022-07-05T10:03:54;11.50;;;9.43;;
65031;SDS011;51593;55.714;37.436;2022-07-05T10:06:25;12.02;;;8.73;;
65031;SDS011;51593;55.714;37.436;2022-07-05T10:08:52;10.43;;;8.73;;
65031;SDS011;51593;55.714;37.436;2022-07-05T10:11:19;11.98;;;9.10;;
65031;SDS011;51593;55.714;37.436;2022-07-05T10:13:48;10.50;;;9.07;;
65031;SDS011;51593;55.714;37.436;2022-07-05T10:16:18;12.18;;;8.95;;
65031;SDS011;51593;55.714;37.436;2022-07-05T10:18:45;12.13;;;8.85;;
65031;SDS011;51593;55.714;37.436;2022-07-05T10:21:13;11.93;;;9.10;;
65031;SDS011;51593;55.714;37.436;2022-07-05T10:23:49;10.50;;;9.00;;
65031;SDS011;51593;55.714;37.436;2022-07-05T10:26:21;11.73;;;8.70;;
65031;SDS011;51593;55.714;37.436;2022-07-05T10:28:48;11.05;;;8.95;;
65031;SDS011;51593;55.714;37.436;2022-07-05T10:31:16;14.52;;;9.15;;
65031;SDS011;51593;55.714;37.436;2022-07-05T10:33:42;11.70;;;9.13;;
65031;SDS011;51593;55.714;37.436;2022-07-05T10:36:12;16.10;;;9.50;;
65031;SDS011;51593;55.714;37.436;2022-07-05T10:38:47;12.63;;;8.85;;
65031;SDS011;51593;55.714;37.436;2022-07-05T10:41:14;10.57;;;8.77;;
65031;SDS011;51593;55.714;37.436;2022-07-05T10:43:44;10.48;;;9.07;;
65031;SDS011;51593;55.714;37.436;2022-07-05T10:46:09;10.63;;;8.70;;
65031;SDS011;51593;55.714;37.436;2022-07-05T10:48:35;17.10;;;9.27;;
65031;SDS011;51593;55.714;37.436;2022-07-05T10:51:13;10.13;;;8.65;;
65031;SDS011;51593;55.714;37.436;2022-07-05T10:58:45;12.30;;;8.70;;
65031;SDS011;51593;55.714;37.436;2022-07-05T11:03:39;12.32;;;8.43;;
65031;SDS011;51593;55.714;37.436;2022-07-05T11:06:06;11.48;;;8.27;;
65031;SDS011;51593;55.714;37.436;2022-07-05T11:11:37;9.73;;;8.63;;
65031;SDS011;51593;55.714;37.436;2022-07-05T11:22:25;15.80;;;9.68;;
65031;SDS011;51593;55.714;37.436;2022-07-05T11:24:51;17.13;;;10.05;;
65031;SDS011;51593;55.714;37.436;2022-07-05T11:27:18;17.40;;;10.07;;
65031;SDS011;51593;55.714;37.436;2022-07-05T11:29:45;16.20;;;9.77;;
65031;SDS011;51593;55.714;37.436;2022-07-05T11:32:14;12.60;;;10.10;;
65031;SDS011;51593;55.714;37.436;2022-07-05T11:34:40;18.90;;;10.85;;
65031;SDS011;51593;55.714;37.436;2022-07-05T11:42:39;13.63;;;10.07;;
65031;SDS011;51593;55.714;37.436;2022-07-05T11:45:11;14.35;;;10.82;;
65031;SDS011;51593;55.714;37.436;2022-07-05T11:47:38;15.23;;;10.88;;
65031;SDS011;51593;55.714;37.436;2022-07-05T11:50:04;13.27;;;10.95;;
65031;SDS011;51593;55.714;37.436;2022-07-05T11:52:31;19.15;;;10.90;;
65031;SDS011;51593;55.714;37.436;2022-07-05T11:55:01;14.98;;;10.32;;
65031;SDS011;51593;55.714;37.436;2022-07-05T11:57:29;19.83;;;10.85;;
65031;SDS011;51593;55.714;37.436;2022-07-05T11:59:55;14.48;;;10.98;;
65031;SDS011;51593;55.714;37.436;2022-07-05T12:02:21;14.98;;;11.93;;
65031;SDS011;51593;55.714;37.436;2022-07-05T12:04:48;16.92;;;11.68;;
65031;SDS011;51593;55.714;37.436;2022-07-05T12:07:31;18.33;;;11.68;;
65031;SDS011;51593;55.714;37.436;2022-07-05T12:12:44;12.88;;;10.52;;
65031;SDS011;51593;55.714;37.436;2022-07-05T12:15:13;15.70;;;10.98;;
65031;SDS011;51593;55.714;37.436;2022-07-05T12:17:41;18.63;;;10.25;;
65031;SDS011;51593;55.714;37.436;2022-07-05T12:20:09;19.58;;;10.10;;
65031;SDS011;51593;55.714;37.436;2022-07-05T12:22:38;16.48;;;10.07;;
65031;SDS011;51593;55.714;37.436;2022-07-05T12:25:07;14.50;;;10.65;;
65031;SDS011;51593;55.714;37.436;2022-07-05T12:27:37;17.30;;;10.30;;
65031;SDS011;51593;55.714;37.436;2022-07-05T12:30:05;14.18;;;9.88;;
65031;SDS011;51593;55.714;37.436;2022-07-05T12:32:52;19.27;;;10.57;;
65031;SDS011;51593;55.714;37.436;2022-07-05T12:35:32;24.13;;;11.70;;
65031;SDS011;51593;55.714;37.436;2022-07-05T12:38:02;24.63;;;12.27;;
65031;SDS011;51593;55.714;37.436;2022-07-05T12:40:29;23.05;;;12.55;;
65031;SDS011;51593;55.714;37.436;2022-07-05T12:45:30;18.20;;;9.77;;
65031;SDS011;51593;55.714;37.436;2022-07-05T12:47:57;22.85;;;10.27;;
65031;SDS011;51593;55.714;37.436;2022-07-05T12:50:26;16.60;;;10.82;;
65031;SDS011;51593;55.714;37.436;2022-07-05T12:52:57;22.10;;;8.65;;
65031;SDS011;51593;55.714;37.436;2022-07-05T12:56:11;14.90;;;6.53;;
65031;SDS011;51593;55.714;37.436;2022-07-05T12:58:59;15.17;;;6.13;;
65031;SDS011;51593;55.714;37.436;2022-07-05T13:01:29;9.85;;;5.70;;
65031;SDS011;51593;55.714;37.436;2022-07-05T13:04:06;7.20;;;4.82;;
65031;SDS011;51593;55.714;37.436;2022-07-05T13:09:11;10.77;;;6.40;;
65031;SDS011;51593;55.714;37.436;2022-07-05T13:11:38;10.20;;;6.80;;
65031;SDS011;51593;55.714;37.436;2022-07-05T13:14:04;10.15;;;6.45;;
65031;SDS011;51593;55.714;37.436;2022-07-05T13:16:30;7.97;;;6.80;;
65031;SDS011;51593;55.714;37.436;2022-07-05T13:19:18;11.27;;;7.20;;
65031;SDS011;51593;55.714;37.436;2022-07-05T13:21:43;8.07;;;6.80;;
65031;SDS011;51593;55.714;37.436;2022-07-05T13:24:10;10.57;;;7.03;;
65031;SDS011;51593;55.714;37.436;2022-07-05T13:26:36;10.07;;;6.85;;
65031;SDS011;51593;55.714;37.436;2022-07-05T13:29:02;12.57;;;8.65;;
65031;SDS011;51593;55.714;37.436;2022-07-05T13:31:28;10.70;;;7.50;;
65031;SDS011;51593;55.714;37.436;2022-07-05T13:33:56;13.63;;;7.97;;
65031;SDS011;51593;55.714;37.436;2022-07-05T13:36:22;13.43;;;8.05;;
65031;SDS011;51593;55.714;37.436;2022-07-05T13:38:48;14.25;;;8.00;;
65031;SDS011;51593;55.714;37.436;2022-07-05T13:41:14;13.70;;;8.20;;
65031;SDS011;51593;55.714;37.436;2022-07-05T13:43:40;13.82;;;8.73;;
65031;SDS011;51593;55.714;37.436;2022-07-05T13:46:05;12.60;;;8.23;;
65031;SDS011;51593;55.714;37.436;2022-07-05T13:48:32;15.20;;;8.27;;
65031;SDS011;51593;55.714;37.436;2022-07-05T13:50:59;12.10;;;8.32;;
65031;SDS011;51593;55.714;37.436;2022-07-05T13:53:24;14.90;;;8.95;;
65031;SDS011;51593;55.714;37.436;2022-07-05T13:55:50;14.63;;;9.02;;
65031;SDS011;51593;55.714;37.436;2022-07-05T13:58:16;11.55;;;8.95;;
65031;SDS011;51593;55.714;37.436;2022-07-05T14:00:41;16.25;;;10.35;;
65031;SDS011;51593;55.714;37.436;2022-07-05T14:03:07;18.05;;;11.35;;
65031;SDS011;51593;55.714;37.436;2022-07-05T14:05:33;23.73;;;11.93;;
65031;SDS011;51593;55.714;37.436;2022-07-05T14:07:59;19.58;;;12.30;;
65031;SDS011;51593;55.714;37.436;2022-07-05T14:10:25;25.25;;;12.07;;
65031;SDS011;51593;55.714;37.436;2022-07-05T14:12:50;23.90;;;12.73;;
65031;SDS011;51593;55.714;37.436;2022-07-05T14:15:16;19.25;;;12.63;;
65031;SDS011;51593;55.714;37.436;2022-07-05T14:17:42;20.00;;;11.35;;
65031;SDS011;51593;55.714;37.436;2022-07-05T14:20:08;13.98;;;9.05;;
65031;SDS011;51593;55.714;37.436;2022-07-05T14:22:35;11.95;;;8.43;;
65031;SDS011;51593;55.714;37.436;2022-07-05T14:25:00;17.10;;;8.73;;
65031;SDS011;51593;55.714;37.436;2022-07-05T14:27:28;19.67;;;9.65;;
65031;SDS011;51593;55.714;37.436;2022-07-05T14:29:54;21.65;;;9.85;;
65031;SDS011;51593;55.714;37.436;2022-07-05T14:32:20;16.27;;;9.15;;
65031;SDS011;51593;55.714;37.436;2022-07-05T14:34:45;15.48;;;9.38;;
65031;SDS011;51593;55.714;37.436;2022-07-05T14:37:11;20.35;;;10.23;;
65031;SDS011;51593;55.714;37.436;2022-07-05T14:39:37;19.70;;;11.70;;
65031;SDS011;51593;55.714;37.436;2022-07-05T14:42:12;16.98;;;11.05;;
65031;SDS011;51593;55.714;37.436;2022-07-05T14:44:37;16.80;;;10.73;;
65031;SDS011;51593;55.714;37.436;2022-07-05T14:47:04;21.70;;;11.38;;
65031;SDS011;51593;55.714;37.436;2022-07-05T14:49:29;15.88;;;9.98;;
65031;SDS011;51593;55.714;37.436;2022-07-05T14:51:58;15.45;;;8.98;;
65031;SDS011;51593;55.714;37.436;2022-07-05T14:54:24;13.00;;;8.98;;
65031;SDS011;51593;55.714;37.436;2022-07-05T14:56:51;15.05;;;10.07;;
65031;SDS011;51593;55.714;37.436;2022-07-05T14:59:17;10.90;;;8.75;;
65031;SDS011;51593;55.714;37.436;2022-07-05T15:01:44;12.25;;;8.68;;
65031;SDS011;51593;55.714;37.436;2022-07-05T15:04:10;16.98;;;9.30;;